Time;durP1;ratioP1;P1;durP2;ratioP2;P2;SDS_P1;SDS_P2;PMS_P1;PMS_P2;Temp;Humidity;BMP_temperature;BMP_pressure;BME280_temperature;BME280_humidity;BME280_pressure;Samples;Min_cycle;Max_cycle;Signal;HPM_P1;HPM_P2
2021/01/18 00:02:16;;;;;;;1.38;0.73;;;3.90;93.10;;;;;;6259361;22;20027;-79
2021/01/18 00:04:44;;;;;;;4.00;0.98;;;3.90;93.10;;;;;;6254113;22;20015;-78
2021/01/18 00:07:09;;;;;;;1.90;0.77;;;3.90;93.20;;;;;;6274555;22;20059;-78
2021/01/18 00:09:35;;;;;;;2.15;0.77;;;3.90;93.20;;;;;;6247409;22;20015;-77
2021/01/18 00:12:01;;;;;;;1.92;0.90;;;3.90;93.10;;;;;;6275880;22;20057;-78
2021/01/18 00:14:26;;;;;;;1.80;0.77;;;3.80;93.10;;;;;;6255317;22;20038;-78
2021/01/18 00:16:52;;;;;;;2.88;0.88;;;3.80;93.10;;;;;;6286831;22;20008;-78
2021/01/18 00:19:18;;;;;;;2.33;0.80;;;3.80;93.10;;;;;;6281739;22;20389;-79
2021/01/18 00:21:46;;;;;;;2.20;0.90;;;3.80;93.10;;;;;;6257143;22;20022;-78
2021/01/18 00:24:13;;;;;;;1.77;0.70;;;3.80;93.10;;;;;;6279842;22;20083;-78
2021/01/18 00:26:39;;;;;;;2.30;0.70;;;3.70;93.10;;;;;;6264936;22;20020;-78
2021/01/18 00:29:05;;;;;;;0.90;0.60;;;3.80;93.20;;;;;;6276261;22;20011;-78
2021/01/18 00:31:30;;;;;;;2.35;0.80;;;3.70;93.20;;;;;;6276324;22;20012;-78
2021/01/18 00:33:56;;;;;;;2.28;0.70;;;3.50;93.30;;;;;;6228682;22;20008;-77
2021/01/18 00:36:22;;;;;;;2.13;0.90;;;3.50;93.30;;;;;;6287663;22;20090;-79
2021/01/18 00:38:47;;;;;;;1.63;0.65;;;3.50;93.30;;;;;;6263431;22;20388;-79
2021/01/18 00:41:13;;;;;;;1.67;0.70;;;3.60;93.30;;;;;;6257458;22;20003;-80
2021/01/18 00:43:41;;;;;;;2.38;0.88;;;3.60;93.30;;;;;;6238352;22;20443;-79
2021/01/18 00:46:07;;;;;;;2.50;0.70;;;3.50;93.30;;;;;;6289560;22;20099;-80
2021/01/18 00:48:32;;;;;;;0.98;0.70;;;3.50;93.30;;;;;;6256028;22;20360;-78
2021/01/18 00:51:00;;;;;;;1.17;0.80;;;3.50;93.30;;;;;;6277752;22;20070;-80
2021/01/18 00:53:26;;;;;;;0.57;0.55;;;3.50;93.30;;;;;;6257201;22;20309;-80
2021/01/18 00:55:52;;;;;;;1.25;0.73;;;3.60;93.30;;;;;;6279086;22;20014;-78
2021/01/18 00:58:18;;;;;;;3.38;0.85;;;3.60;93.30;;;;;;6277604;22;20316;-81
2021/01/18 01:00:43;;;;;;;1.52;1.00;;;3.60;93.30;;;;;;6278085;22;20006;-79
2021/01/18 01:03:09;;;;;;;1.83;0.70;;;3.60;93.30;;;;;;6249380;22;20003;-79
2021/01/18 01:05:35;;;;;;;2.22;1.00;;;3.70;93.30;;;;;;6277486;22;20463;-79
2021/01/18 01:08:00;;;;;;;1.48;0.90;;;3.70;93.20;;;;;;6255989;22;20011;-78
2021/01/18 01:10:28;;;;;;;1.48;0.88;;;3.80;93.20;;;;;;6258546;22;20011;-78
2021/01/18 01:12:57;;;;;;;1.63;1.13;;;3.60;93.20;;;;;;6282118;22;20468;-79
2021/01/18 01:15:23;;;;;;;2.05;1.00;;;3.70;93.20;;;;;;6280015;22;20008;-77
2021/01/18 01:17:49;;;;;;;2.10;0.75;;;3.70;93.10;;;;;;6280432;22;21239;-76
2021/01/18 01:20:17;;;;;;;1.63;0.80;;;3.70;93.10;;;;;;6267997;22;20424;-76
2021/01/18 01:22:44;;;;;;;2.40;1.10;;;3.80;93.10;;;;;;6287183;22;20010;-76
2021/01/18 01:25:11;;;;;;;1.70;0.90;;;3.60;93.10;;;;;;6287521;22;20004;-77
2021/01/18 01:27:38;;;;;;;2.10;0.45;;;3.60;93.10;;;;;;6280392;22;20070;-76
2021/01/18 01:30:06;;;;;;;2.65;0.82;;;3.60;93.20;;;;;;6288675;22;20014;-76
2021/01/18 01:32:32;;;;;;;3.25;1.00;;;3.60;93.20;;;;;;6290157;22;20007;-76
2021/01/18 01:34:58;;;;;;;1.92;0.77;;;3.50;93.20;;;;;;6256510;22;20014;-76
2021/01/18 01:37:24;;;;;;;1.52;0.90;;;3.60;93.30;;;;;;6294100;22;20004;-75
2021/01/18 01:39:50;;;;;;;2.25;1.00;;;3.50;93.20;;;;;;6290405;22;20004;-78
2021/01/18 01:42:19;;;;;;;4.22;1.13;;;3.60;93.20;;;;;;6237555;22;20012;-78
2021/01/18 01:44:45;;;;;;;0.90;0.80;;;3.60;93.20;;;;;;6290044;22;20038;-77
2021/01/18 01:47:16;;;;;;;1.35;0.80;;;3.60;93.10;;;;;;6272661;22;20412;-78
2021/01/18 01:49:41;;;;;;;2.90;0.90;;;3.60;93.10;;;;;;6258074;22;20439;-76
2021/01/18 01:52:07;;;;;;;1.17;0.60;;;3.60;93.10;;;;;;6285440;22;20012;-77
2021/01/18 01:54:34;;;;;;;1.67;0.70;;;3.60;93.10;;;;;;6292345;22;20003;-79
2021/01/18 01:57:00;;;;;;;1.33;0.73;;;3.50;93.10;;;;;;6258590;22;20091;-77
2021/01/18 01:59:27;;;;;;;1.95;0.77;;;3.60;93.20;;;;;;6288209;22;20011;-78
2021/01/18 02:01:55;;;;;;;2.20;0.73;;;3.50;93.20;;;;;;6249668;22;20007;-80
2021/01/18 02:04:22;;;;;;;1.20;0.85;;;3.40;93.20;;;;;;6251860;22;20031;-80
2021/01/18 02:06:47;;;;;;;2.20;0.75;;;3.40;93.20;;;;;;6225180;22;20014;-77
2021/01/18 02:09:13;;;;;;;0.90;0.60;;;3.40;93.20;;;;;;6275153;22;20003;-77
2021/01/18 02:11:39;;;;;;;1.50;0.75;;;3.40;93.30;;;;;;6275438;22;20302;-77
2021/01/18 02:14:28;;;;;;;2.80;0.60;;;3.30;93.20;;;;;;6275468;22;20016;-77
2021/01/18 02:17:09;;;;;;;1.30;0.85;;;3.20;93.30;;;;;;6275453;22;20066;-76
2021/01/18 02:20:05;;;;;;;1.95;0.80;;;3.20;93.30;;;;;;6275063;22;20343;-77
2021/01/18 02:23:04;;;;;;;1.38;0.70;;;3.20;93.40;;;;;;6226961;22;20012;-76
2021/01/18 02:25:42;;;;;;;1.25;0.70;;;3.10;93.30;;;;;;6275153;22;20008;-77
2021/01/18 02:28:31;;;;;;;3.22;0.82;;;3.20;93.40;;;;;;6275823;22;20061;-77
2021/01/18 02:31:15;;;;;;;1.25;0.70;;;3.20;93.30;;;;;;6275809;22;20086;-77
2021/01/18 02:34:15;;;;;;;1.30;0.77;;;3.30;93.30;;;;;;6248719;22;20422;-77
2021/01/18 02:37:02;;;;;;;1.30;0.60;;;3.20;93.20;;;;;;6275109;22;20018;-77
2021/01/18 02:39:57;;;;;;;1.27;0.52;;;3.30;93.20;;;;;;6275733;22;20012;-77
2021/01/18 02:42:29;;;;;;;1.65;0.70;;;3.20;93.30;;;;;;6255032;22;20007;-77
2021/01/18 02:44:58;;;;;;;1.15;0.80;;;3.30;93.30;;;;;;6274749;22;20039;-77
2021/01/18 02:47:29;;;;;;;1.13;0.73;;;3.20;93.20;;;;;;6275063;22;20088;-77
2021/01/18 02:49:59;;;;;;;2.05;0.85;;;3.30;93.20;;;;;;6275450;22;20012;-77
2021/01/18 02:52:24;;;;;;;2.22;0.80;;;3.20;93.20;;;;;;6275220;22;20012;-77
2021/01/18 02:54:50;;;;;;;1.52;0.88;;;3.20;93.20;;;;;;6274873;22;20082;-77
2021/01/18 02:57:19;;;;;;;2.83;1.00;;;3.20;93.20;;;;;;6274711;22;20401;-77
2021/01/18 02:59:45;;;;;;;1.85;0.90;;;3.10;93.20;;;;;;6275220;22;20004;-77
2021/01/18 03:02:36;;;;;;;1.45;0.80;;;3.20;93.20;;;;;;6247771;22;20018;-76
2021/01/18 03:05:16;;;;;;;1.53;0.87;;;3.10;93.20;;;;;;6275552;22;20007;-77
2021/01/18 03:08:01;;;;;;;2.65;0.77;;;3.10;93.20;;;;;;6274606;22;20034;-77
2021/01/18 03:10:49;;;;;;;2.03;0.80;;;3.10;93.30;;;;;;6247494;22;20019;-77
2021/01/18 03:13:19;;;;;;;1.65;1.00;;;3.00;93.30;;;;;;6274710;22;20043;-77
2021/01/18 03:15:50;;;;;;;3.60;1.10;;;3.00;93.30;;;;;;6274632;22;20030;-77
2021/01/18 03:18:20;;;;;;;1.52;0.80;;;3.00;93.20;;;;;;6274642;22;20086;-77
2021/01/18 03:20:46;;;;;;;2.70;1.00;;;3.00;93.30;;;;;;6274738;22;20003;-77
2021/01/18 03:23:12;;;;;;;2.00;0.90;;;3.00;93.30;;;;;;6274827;22;20369;-77
2021/01/18 03:25:47;;;;;;;2.00;1.05;;;2.90;93.30;;;;;;6274850;22;20014;-78
2021/01/18 03:28:13;;;;;;;1.75;0.93;;;2.90;93.30;;;;;;6249401;22;20011;-77
2021/01/18 03:30:39;;;;;;;2.28;0.88;;;2.90;93.30;;;;;;6274874;22;20015;-77
2021/01/18 03:33:04;;;;;;;2.03;1.17;;;2.90;93.30;;;;;;6274687;22;20069;-77
2021/01/18 03:35:30;;;;;;;2.40;0.88;;;2.90;93.30;;;;;;6247607;22;20008;-77
2021/01/18 03:37:58;;;;;;;2.17;0.88;;;2.80;93.30;;;;;;6274671;22;20485;-77
2021/01/18 03:40:25;;;;;;;3.00;1.23;;;2.70;93.30;;;;;;6247568;22;20079;-77
2021/01/18 03:43:04;;;;;;;1.58;1.00;;;2.90;93.30;;;;;;6274802;22;20027;-77
2021/01/18 03:45:31;;;;;;;2.08;0.95;;;2.80;93.30;;;;;;6275177;22;20012;-77
2021/01/18 03:47:57;;;;;;;2.05;1.00;;;2.80;93.30;;;;;;6274669;22;20014;-77
2021/01/18 03:50:24;;;;;;;1.48;0.98;;;2.90;93.30;;;;;;6275242;22;20436;-77
2021/01/18 03:52:51;;;;;;;2.10;1.00;;;2.80;93.30;;;;;;6275285;22;20016;-77
2021/01/18 03:55:18;;;;;;;2.90;1.10;;;2.80;93.30;;;;;;6247686;22;20015;-77
2021/01/18 03:57:46;;;;;;;1.70;0.77;;;2.80;93.30;;;;;;6275770;22;20023;-77
2021/01/18 04:00:13;;;;;;;1.75;1.10;;;2.80;93.30;;;;;;6276632;22;20007;-77
2021/01/18 04:02:39;;;;;;;2.55;1.20;;;2.80;93.30;;;;;;6248971;22;20004;-77
2021/01/18 04:05:06;;;;;;;2.47;1.20;;;2.80;93.30;;;;;;6275783;22;20020;-77
2021/01/18 04:07:32;;;;;;;4.30;1.30;;;2.80;93.40;;;;;;6248793;22;20014;-77
2021/01/18 04:09:57;;;;;;;1.92;1.10;;;2.80;93.40;;;;;;6275824;22;20066;-77
2021/01/18 04:12:23;;;;;;;2.17;1.10;;;2.80;93.30;;;;;;6276326;22;20340;-77
2021/01/18 04:14:50;;;;;;;2.40;1.02;;;2.80;93.30;;;;;;6275484;22;20014;-77
2021/01/18 04:17:17;;;;;;;3.10;1.30;;;2.80;93.30;;;;;;6275834;22;20039;-77
2021/01/18 04:19:43;;;;;;;2.78;1.30;;;2.90;93.30;;;;;;6248684;22;20403;-77
2021/01/18 04:22:09;;;;;;;3.35;1.20;;;2.90;93.20;;;;;;6275845;22;20003;-77
2021/01/18 04:24:35;;;;;;;4.63;1.50;;;2.90;93.30;;;;;;6275970;22;20153;-77
2021/01/18 04:27:01;;;;;;;2.85;1.40;;;2.80;93.20;;;;;;6248566;22;20094;-77
2021/01/18 04:29:27;;;;;;;2.10;1.20;;;2.90;93.30;;;;;;6248321;22;20035;-77
2021/01/18 04:31:53;;;;;;;4.53;1.58;;;2.90;93.30;;;;;;6275941;22;20012;-77
2021/01/18 04:34:19;;;;;;;2.80;1.20;;;2.80;93.20;;;;;;6223035;22;20501;-77
2021/01/18 04:36:45;;;;;;;2.72;1.42;;;2.80;93.30;;;;;;6276147;22;20039;-77
2021/01/18 04:39:11;;;;;;;2.15;1.25;;;2.90;93.30;;;;;;6275480;22;20008;-77
2021/01/18 04:41:41;;;;;;;2.00;1.10;;;2.80;93.30;;;;;;6276124;22;20053;-77
2021/01/18 04:44:08;;;;;;;3.25;0.98;;;2.80;93.30;;;;;;6223970;22;20142;-77
2021/01/18 04:46:44;;;;;;;2.47;1.10;;;2.80;93.30;;;;;;6275503;22;20008;-77
2021/01/18 04:49:12;;;;;;;2.75;1.23;;;2.80;93.30;;;;;;6248447;22;20034;-77
2021/01/18 04:51:46;;;;;;;2.70;1.20;;;2.80;93.30;;;;;;6249713;22;20090;-77
2021/01/18 04:54:15;;;;;;;2.28;1.13;;;2.80;93.30;;;;;;6276022;22;20078;-77
2021/01/18 04:57:10;;;;;;;2.67;1.20;;;2.80;93.30;;;;;;6275960;22;20020;-77
2021/01/18 04:59:49;;;;;;;2.22;1.20;;;2.80;93.40;;;;;;6275691;22;20004;-76
2021/01/18 05:02:19;;;;;;;2.28;1.10;;;2.80;93.40;;;;;;6249149;22;20007;-77
2021/01/18 05:04:46;;;;;;;3.00;1.35;;;2.80;93.30;;;;;;6275966;22;20011;-77
2021/01/18 05:07:48;;;;;;;3.13;1.17;;;2.80;93.40;;;;;;6248796;22;20038;-77
2021/01/18 05:10:25;;;;;;;2.22;1.05;;;2.80;93.40;;;;;;6253299;22;20015;-77
2021/01/18 05:12:54;;;;;;;2.35;1.20;;;2.90;93.40;;;;;;6276385;22;20007;-77
2021/01/18 05:15:20;;;;;;;1.60;0.90;;;2.80;93.30;;;;;;6275692;22;20313;-77
2021/01/18 05:17:47;;;;;;;2.85;0.85;;;2.90;93.40;;;;;;6276255;22;20004;-77
2021/01/18 05:20:16;;;;;;;2.50;1.10;;;2.90;93.30;;;;;;6276368;22;20016;-77
2021/01/18 05:22:47;;;;;;;2.78;1.45;;;2.90;93.30;;;;;;6248492;22;20069;-77
2021/01/18 05:25:14;;;;;;;3.40;1.15;;;2.90;93.40;;;;;;6275599;22;20012;-77
2021/01/18 05:28:03;;;;;;;1.90;1.00;;;2.80;93.40;;;;;;6275899;22;20008;-77
2021/01/18 05:30:37;;;;;;;1.77;0.95;;;2.80;93.40;;;;;;6248603;22;20015;-77
2021/01/18 05:33:09;;;;;;;2.63;1.10;;;2.80;93.40;;;;;;6248849;22;20400;-77
2021/01/18 05:35:39;;;;;;;2.45;0.88;;;2.90;93.40;;;;;;6275667;22;20008;-77
2021/01/18 05:38:10;;;;;;;2.30;1.00;;;2.80;93.40;;;;;;6275834;22;20502;-77
2021/01/18 05:40:52;;;;;;;1.92;0.90;;;2.90;93.40;;;;;;6275770;22;20073;-77
2021/01/18 05:43:18;;;;;;;1.88;0.90;;;2.90;93.40;;;;;;6249314;22;20034;-77
2021/01/18 05:45:46;;;;;;;2.35;1.00;;;2.90;93.70;;;;;;6275505;22;20335;-77
2021/01/18 05:48:23;;;;;;;1.70;0.93;;;2.90;93.40;;;;;;6276132;22;20011;-77
2021/01/18 05:50:56;;;;;;;1.88;0.90;;;2.90;93.40;;;;;;6223237;22;20007;-77
2021/01/18 05:53:27;;;;;;;3.10;1.10;;;2.90;93.40;;;;;;6275642;22;20004;-77
2021/01/18 05:55:53;;;;;;;1.92;0.85;;;3.00;93.70;;;;;;6223215;22;20340;-77
2021/01/18 05:58:34;;;;;;;1.88;1.02;;;3.00;93.40;;;;;;6275562;22;20011;-77
2021/01/18 06:01:00;;;;;;;2.17;1.05;;;3.00;93.40;;;;;;6276120;22;20008;-77
2021/01/18 06:03:28;;;;;;;3.33;0.93;;;3.00;93.40;;;;;;6275877;22;20011;-77
2021/01/18 06:05:54;;;;;;;1.90;0.88;;;2.90;93.30;;;;;;6275556;22;20035;-77
2021/01/18 06:08:20;;;;;;;2.03;0.90;;;2.90;93.40;;;;;;6248738;22;20008;-77
2021/01/18 06:10:47;;;;;;;2.67;1.00;;;3.00;93.50;;;;;;6249239;22;20015;-77
2021/01/18 06:13:28;;;;;;;3.03;0.90;;;3.00;93.40;;;;;;6275698;22;20065;-77
2021/01/18 06:16:10;;;;;;;2.92;1.08;;;3.00;93.40;;;;;;6275405;22;20012;-77
2021/01/18 06:18:38;;;;;;;1.92;0.95;;;3.00;93.40;;;;;;6275507;22;20090;-76
2021/01/18 06:21:07;;;;;;;2.08;1.08;;;3.00;93.40;;;;;;6247666;22;20019;-77
2021/01/18 06:23:33;;;;;;;0.98;0.80;;;3.00;93.60;;;;;;6275384;22;20432;-77
2021/01/18 06:26:00;;;;;;;1.70;0.88;;;3.10;93.40;;;;;;6275935;22;20424;-77
2021/01/18 06:28:31;;;;;;;2.72;1.10;;;3.10;93.30;;;;;;6275485;22;20040;-77
2021/01/18 06:30:59;;;;;;;2.50;0.88;;;3.10;93.30;;;;;;6251130;22;20011;-77
2021/01/18 06:33:39;;;;;;;2.08;0.90;;;3.10;93.40;;;;;;6276110;22;20015;-76
2021/01/18 06:36:20;;;;;;;1.25;0.80;;;3.10;93.40;;;;;;6275255;22;20043;-77
2021/01/18 06:39:07;;;;;;;4.22;1.00;;;3.10;93.40;;;;;;6248532;22;20018;-77
2021/01/18 06:41:38;;;;;;;2.72;1.10;;;3.00;93.40;;;;;;6248319;22;20011;-78
2021/01/18 06:44:05;;;;;;;2.58;1.13;;;3.00;93.40;;;;;;6275319;22;20014;-78
2021/01/18 06:46:36;;;;;;;2.22;1.17;;;3.10;93.40;;;;;;6248767;22;20012;-77
2021/01/18 06:49:03;;;;;;;4.75;1.63;;;3.10;93.40;;;;;;6275353;22;20090;-78
2021/01/18 06:51:31;;;;;;;4.32;1.60;;;3.10;93.40;;;;;;6248614;22;20034;-78
2021/01/18 06:53:58;;;;;;;2.63;1.27;;;3.10;93.40;;;;;;6275947;22;20008;-77
2021/01/18 06:56:45;;;;;;;3.33;1.50;;;3.10;93.30;;;;;;6275383;22;20008;-78
2021/01/18 06:59:50;;;;;;;1.77;1.15;;;3.10;93.30;;;;;;6275298;22;20003;-77
2021/01/18 07:02:23;;;;;;;2.58;1.00;;;3.10;93.30;;;;;;6275504;22;20010;-77
2021/01/18 07:04:50;;;;;;;4.38;1.60;;;3.10;93.30;;;;;;6276007;22;20057;-77
2021/01/18 07:07:25;;;;;;;2.47;1.30;;;3.20;93.40;;;;;;6275669;22;20065;-78
2021/01/18 07:09:56;;;;;;;4.13;1.45;;;3.10;93.40;;;;;;6275886;22;20494;-77
2021/01/18 07:12:24;;;;;;;2.88;1.30;;;3.10;93.40;;;;;;6275235;22;20008;-77
2021/01/18 07:14:57;;;;;;;3.67;1.58;;;3.10;93.40;;;;;;6247937;22;20004;-77
2021/01/18 07:17:44;;;;;;;3.42;1.52;;;3.20;93.40;;;;;;6275202;22;20126;-77
2021/01/18 07:20:18;;;;;;;5.07;1.85;;;3.20;93.40;;;;;;6275607;22;20015;-77
2021/01/18 07:23:16;;;;;;;5.60;2.10;;;3.20;93.30;;;;;;6275521;22;20041;-77
2021/01/18 07:25:46;;;;;;;4.10;1.90;;;3.20;93.30;;;;;;6275437;22;20057;-78
2021/01/18 07:28:14;;;;;;;4.13;1.97;;;3.20;93.30;;;;;;6274862;22;20007;-77
2021/01/18 07:30:40;;;;;;;4.15;2.00;;;3.30;93.30;;;;;;6275462;22;20015;-77
2021/01/18 07:33:12;;;;;;;4.30;1.77;;;3.30;93.30;;;;;;6251914;22;20015;-78
2021/01/18 07:35:39;;;;;;;4.13;2.53;;;3.30;93.30;;;;;;6258625;22;20057;-78
2021/01/18 07:38:17;;;;;;;5.30;2.40;;;3.30;93.30;;;;;;6280113;22;20007;-78
2021/01/18 07:41:11;;;;;;;4.55;2.13;;;3.40;93.30;;;;;;6257931;22;20031;-77
2021/01/18 07:43:40;;;;;;;4.28;2.40;;;3.30;93.20;;;;;;6284109;22;20352;-78
2021/01/18 07:46:37;;;;;;;5.07;2.03;;;3.40;93.20;;;;;;6284087;22;20007;-78
2021/01/18 07:49:31;;;;;;;4.47;1.90;;;3.30;93.20;;;;;;6260487;22;20099;-78
2021/01/18 07:52:12;;;;;;;4.47;2.13;;;3.40;93.20;;;;;;6284334;22;20414;-78
2021/01/18 07:54:37;;;;;;;7.13;2.33;;;3.40;93.20;;;;;;6285151;22;20014;-78
2021/01/18 07:57:25;;;;;;;4.88;2.35;;;3.50;93.30;;;;;;6257156;22;20431;-78
2021/01/18 08:00:23;;;;;;;4.13;2.20;;;3.40;93.20;;;;;;6283888;22;20004;-78
2021/01/18 08:02:55;;;;;;;4.65;2.03;;;3.40;93.20;;;;;;6286262;22;20004;-78
2021/01/18 08:05:27;;;;;;;6.70;2.50;;;3.60;93.20;;;;;;6280974;22;20428;-79
2021/01/18 08:08:02;;;;;;;5.60;2.45;;;3.60;93.20;;;;;;6256581;22;20003;-78
2021/01/18 08:10:54;;;;;;;5.18;2.47;;;3.60;93.20;;;;;;6225546;22;20087;-79
2021/01/18 08:13:43;;;;;;;6.30;2.63;;;3.50;93.20;;;;;;6286973;22;20367;-79
2021/01/18 08:16:22;;;;;;;4.82;2.03;;;3.60;93.30;;;;;;6279601;22;20026;-78
2021/01/18 08:19:11;;;;;;;4.53;2.25;;;3.40;93.20;;;;;;6270925;22;20376;-80
2021/01/18 08:21:41;;;;;;;3.97;1.88;;;3.60;93.20;;;;;;6225607;22;20014;-79
2021/01/18 08:24:27;;;;;;;3.65;1.85;;;3.60;93.20;;;;;;6276510;22;20003;-77
2021/01/18 08:26:55;;;;;;;5.28;2.10;;;3.70;93.30;;;;;;6276653;22;20021;-75
2021/01/18 08:29:43;;;;;;;4.35;1.80;;;3.60;93.20;;;;;;6249007;22;20385;-76
2021/01/18 08:32:39;;;;;;;5.78;2.60;;;3.60;93.30;;;;;;6276825;22;20008;-77
2021/01/18 08:35:24;;;;;;;3.67;1.88;;;3.70;93.30;;;;;;6276118;22;20569;-78
2021/01/18 08:38:01;;;;;;;4.63;1.95;;;3.70;93.30;;;;;;6256373;22;20339;-79
2021/01/18 08:40:42;;;;;;;4.07;1.67;;;3.70;93.30;;;;;;6253930;22;20004;-80
2021/01/18 08:43:08;;;;;;;5.70;2.22;;;3.80;93.30;;;;;;6257517;22;20004;-79
2021/01/18 08:45:40;;;;;;;4.38;1.95;;;3.80;93.30;;;;;;6251279;22;20339;-79
2021/01/18 08:48:09;;;;;;;3.15;1.67;;;3.80;93.30;;;;;;6227236;22;20033;-80
2021/01/18 08:50:42;;;;;;;3.85;1.83;;;3.80;93.20;;;;;;6249814;22;20407;-78
2021/01/18 08:53:23;;;;;;;5.07;2.05;;;3.80;93.20;;;;;;6276485;22;20007;-78
2021/01/18 08:55:51;;;;;;;3.58;1.85;;;3.80;93.20;;;;;;6275633;22;20016;-78
2021/01/18 08:58:32;;;;;;;5.28;1.83;;;3.90;93.30;;;;;;6276561;22;20055;-79
2021/01/18 09:00:59;;;;;;;6.25;2.50;;;3.80;93.20;;;;;;6249555;22;20027;-78
2021/01/18 09:03:25;;;;;;;4.70;2.47;;;4.00;93.20;;;;;;6276256;22;20008;-78
2021/01/18 09:05:56;;;;;;;4.93;2.55;;;4.00;93.20;;;;;;6276443;22;20454;-79
2021/01/18 09:08:23;;;;;;;6.07;2.63;;;4.10;93.20;;;;;;6224532;22;20015;-77
2021/01/18 09:10:57;;;;;;;4.53;2.40;;;4.10;93.20;;;;;;6276687;22;20335;-78
2021/01/18 09:13:26;;;;;;;5.22;2.58;;;4.10;93.20;;;;;;6249723;22;20070;-78
2021/01/18 09:15:53;;;;;;;6.25;2.60;;;4.20;93.20;;;;;;6276409;22;20007;-78
2021/01/18 09:18:19;;;;;;;6.38;3.22;;;4.20;93.10;;;;;;6224424;22;20019;-77
2021/01/18 09:20:46;;;;;;;6.35;2.90;;;4.30;93.10;;;;;;6249373;22;20091;-78
2021/01/18 09:23:13;;;;;;;8.70;3.50;;;4.30;93.10;;;;;;6277922;22;20388;-78
2021/01/18 09:25:40;;;;;;;5.97;2.88;;;4.40;93.10;;;;;;6276430;22;20039;-76
2021/01/18 09:28:09;;;;;;;5.10;2.80;;;4.40;93.00;;;;;;6248849;22;20451;-78
2021/01/18 09:30:36;;;;;;;8.85;3.15;;;4.40;93.00;;;;;;6278684;22;20490;-78
2021/01/18 09:33:06;;;;;;;7.38;3.53;;;4.40;93.00;;;;;;6277814;22;20011;-76
2021/01/18 09:35:45;;;;;;;8.45;3.70;;;4.50;93.00;;;;;;6276060;22;20332;-79
2021/01/18 09:38:21;;;;;;;6.15;3.05;;;4.50;93.00;;;;;;6250282;22;20007;-80
2021/01/18 09:40:47;;;;;;;5.53;3.65;;;4.40;93.00;;;;;;6226806;22;20065;-78
2021/01/18 09:43:22;;;;;;;7.40;3.58;;;4.40;93.00;;;;;;6224802;22;20388;-79
2021/01/18 09:45:56;;;;;;;8.82;4.07;;;4.50;93.00;;;;;;6210531;23;20027;-76
2021/01/18 09:48:27;;;;;;;6.88;3.42;;;4.50;93.00;;;;;;6212247;23;20019;-78
2021/01/18 09:51:04;;;;;;;8.65;4.22;;;4.50;93.10;;;;;;6152184;23;20021;-78
2021/01/18 09:53:30;;;;;;;6.68;3.67;;;4.60;93.10;;;;;;6104242;23;20029;-79
2021/01/18 09:56:03;;;;;;;8.48;3.58;;;4.60;93.10;;;;;;6122526;23;20339;-76
2021/01/18 09:58:36;;;;;;;9.93;4.55;;;4.60;93.10;;;;;;6124619;23;20030;-76
2021/01/18 10:01:07;;;;;;;6.47;3.28;;;4.60;93.10;;;;;;6122904;23;20092;-77
2021/01/18 10:03:36;;;;;;;10.05;3.53;;;4.70;93.10;;;;;;6102615;23;20024;-78
2021/01/18 10:06:06;;;;;;;8.52;3.85;;;4.80;93.00;;;;;;6124280;23;20096;-75
2021/01/18 10:08:34;;;;;;;6.60;3.70;;;4.80;93.00;;;;;;6122824;23;20041;-76
2021/01/18 10:11:00;;;;;;;6.93;3.65;;;4.80;93.00;;;;;;6122791;23;20328;-76
2021/01/18 10:13:26;;;;;;;8.30;3.50;;;4.80;93.00;;;;;;6125941;23;20014;-79
2021/01/18 10:15:53;;;;;;;8.80;3.97;;;4.90;93.00;;;;;;6136840;23;20055;-78
2021/01/18 10:18:32;;;;;;;9.68;4.05;;;4.80;93.00;;;;;;6188574;23;20040;-78
2021/01/18 10:20:59;;;;;;;6.68;3.50;;;4.90;93.00;;;;;;6220776;22;20049;-77
2021/01/18 10:23:30;;;;;;;5.70;3.00;;;4.90;93.00;;;;;;6247731;22;20018;-79
2021/01/18 10:26:17;;;;;;;7.03;3.67;;;4.90;93.00;;;;;;6222594;22;20039;-80
2021/01/18 10:29:09;;;;;;;8.00;4.15;;;5.10;93.00;;;;;;6256687;22;20065;-79
2021/01/18 10:31:35;;;;;;;10.00;5.00;;;5.20;93.00;;;;;;6225053;22;20012;-78
2021/01/18 10:34:26;;;;;;;8.85;4.35;;;5.00;92.90;;;;;;6277956;22;20004;-78
2021/01/18 10:36:54;;;;;;;7.18;4.18;;;5.10;93.00;;;;;;6275801;22;20062;-78
2021/01/18 10:39:29;;;;;;;8.20;4.20;;;5.10;92.90;;;;;;6248337;22;20008;-77
2021/01/18 10:42:02;;;;;;;11.30;5.20;;;5.20;92.90;;;;;;6276599;22;20027;-78
2021/01/18 10:44:29;;;;;;;9.35;4.30;;;5.20;92.90;;;;;;6275910;22;20012;-78
2021/01/18 10:46:54;;;;;;;7.40;4.20;;;5.30;92.90;;;;;;6276276;22;20030;-76
2021/01/18 10:49:26;;;;;;;7.40;3.63;;;5.30;92.90;;;;;;6276751;22;20447;-80
2021/01/18 10:52:02;;;;;;;8.35;4.63;;;5.30;92.90;;;;;;6248024;22;20007;-79
2021/01/18 10:54:28;;;;;;;7.43;4.45;;;5.30;92.80;;;;;;6275207;22;20427;-79
2021/01/18 10:56:58;;;;;;;7.03;4.03;;;5.30;92.80;;;;;;6247936;22;20012;-77
2021/01/18 10:59:24;;;;;;;8.55;4.13;;;5.40;92.80;;;;;;6275433;22;20007;-76
2021/01/18 11:02:07;;;;;;;7.25;4.50;;;5.40;92.90;;;;;;6275577;22;20004;-78
2021/01/18 11:04:36;;;;;;;7.75;4.10;;;5.40;92.90;;;;;;6248374;22;20003;-78
2021/01/18 11:07:03;;;;;;;9.38;4.05;;;5.40;92.80;;;;;;6248368;22;20008;-79
2021/01/18 11:09:32;;;;;;;10.60;4.00;;;5.40;92.90;;;;;;6225796;22;20008;-80
2021/01/18 11:12:01;;;;;;;10.40;4.80;;;5.30;92.80;;;;;;6276935;22;20336;-80
2021/01/18 11:14:28;;;;;;;8.38;4.40;;;5.50;92.80;;;;;;6227167;22;20458;-76
2021/01/18 11:17:06;;;;;;;8.32;4.50;;;5.50;92.80;;;;;;6284217;22;20416;-82
2021/01/18 11:19:34;;;;;;;8.23;4.32;;;5.50;92.80;;;;;;6277401;22;20436;-78
2021/01/18 11:21:59;;;;;;;9.45;5.05;;;5.50;92.80;;;;;;6198702;22;20074;-78
2021/01/18 11:24:25;;;;;;;10.15;4.68;;;5.50;92.80;;;;;;6277391;22;20004;-78
2021/01/18 11:26:52;;;;;;;8.48;4.68;;;5.50;92.80;;;;;;6278242;22;20355;-78
2021/01/18 11:29:20;;;;;;;7.07;3.85;;;5.50;92.80;;;;;;6277957;22;20041;-78
2021/01/18 11:31:47;;;;;;;6.97;3.63;;;5.50;92.80;;;;;;6280168;22;20011;-78
2021/01/18 11:34:14;;;;;;;7.22;3.20;;;5.60;92.90;;;;;;6278415;22;20027;-77
2021/01/18 11:36:40;;;;;;;6.55;3.70;;;5.60;92.80;;;;;;6275225;22;20019;-77
2021/01/18 11:39:07;;;;;;;6.88;3.50;;;5.50;92.80;;;;;;6275619;22;20012;-78
2021/01/18 11:41:34;;;;;;;7.20;3.67;;;5.60;92.80;;;;;;6274980;22;20012;-78
2021/01/18 11:44:01;;;;;;;5.68;3.33;;;5.60;92.80;;;;;;6275761;22;20913;-79
2021/01/18 11:46:27;;;;;;;6.82;3.55;;;5.50;92.80;;;;;;6249329;22;20086;-78
2021/01/18 11:48:53;;;;;;;6.35;3.38;;;5.60;92.80;;;;;;6277404;22;20008;-79
2021/01/18 11:51:19;;;;;;;7.25;4.40;;;5.70;92.80;;;;;;6228805;22;20012;-78
2021/01/18 11:53:47;;;;;;;8.13;3.83;;;5.60;92.80;;;;;;6278279;22;20462;-80
2021/01/18 11:56:12;;;;;;;9.05;5.13;;;5.60;92.80;;;;;;6249719;22;20031;-78
2021/01/18 11:58:38;;;;;;;8.73;4.53;;;5.50;92.70;;;;;;6278217;22;20018;-78
2021/01/18 12:01:09;;;;;;;8.75;3.92;;;5.60;92.70;;;;;;6278910;22;20490;-80
2021/01/18 12:03:39;;;;;;;8.50;3.55;;;5.60;92.70;;;;;;6225046;22;20007;-81
2021/01/18 12:06:05;;;;;;;8.15;3.42;;;5.60;92.70;;;;;;6199290;22;20019;-80
2021/01/18 12:08:30;;;;;;;8.10;3.50;;;5.60;92.70;;;;;;6224869;22;20016;-81
2021/01/18 12:10:56;;;;;;;8.88;3.38;;;5.70;92.70;;;;;;6249778;22;20012;-79
2021/01/18 12:13:22;;;;;;;6.43;3.00;;;5.70;92.70;;;;;;6275538;22;20057;-81
2021/01/18 12:15:48;;;;;;;8.20;3.20;;;5.80;92.70;;;;;;6249031;22;20062;-80
2021/01/18 12:18:14;;;;;;;7.90;3.10;;;5.80;92.60;;;;;;6248346;22;20493;-81
2021/01/18 12:20:41;;;;;;;8.00;3.30;;;5.80;92.60;;;;;;6279264;22;20038;-80
2021/01/18 12:23:08;;;;;;;6.05;2.85;;;5.90;92.60;;;;;;6247064;22;20019;-80
2021/01/18 12:25:34;;;;;;;7.30;3.30;;;5.90;92.50;;;;;;6276511;22;20012;-80
2021/01/18 12:30:51;;;;;;;7.10;2.60;;;5.90;92.50;;;;;;6215785;23;20055;-82
2021/01/18 12:33:16;;;;;;;6.10;2.55;;;5.90;92.50;;;;;;6165614;23;20016;-80
2021/01/18 12:35:42;;;;;;;5.82;2.78;;;5.90;92.50;;;;;;6193762;23;20125;-81
2021/01/18 12:38:08;;;;;;;8.05;2.30;;;6.00;92.50;;;;;;6190410;23;20070;-79
2021/01/18 12:40:34;;;;;;;5.30;2.42;;;6.00;92.40;;;;;;6216734;23;20392;-82
2021/01/18 12:43:48;;;;;;;6.13;2.72;;;5.90;92.40;;;;;;6134916;23;20072;-82
2021/01/18 12:46:20;;;;;;;7.75;2.80;;;6.00;92.50;;;;;;6100077;23;20037;-85
2021/01/18 12:48:46;;;;;;;6.18;2.65;;;6.00;92.40;;;;;;6076470;23;20057;-80
2021/01/18 12:51:14;;;;;;;6.93;2.90;;;6.00;92.40;;;;;;6094465;23;20379;-79
2021/01/18 12:53:47;;;;;;;6.82;2.75;;;6.00;92.40;;;;;;6093088;23;20102;-83
2021/01/18 12:56:28;;;;;;;4.95;2.17;;;6.00;92.40;;;;;;6091767;23;20485;-82
2021/01/18 12:58:54;;;;;;;4.65;2.33;;;6.00;92.40;;;;;;6097353;23;20101;-79
2021/01/18 13:01:36;;;;;;;5.68;2.70;;;6.00;92.50;;;;;;6099715;23;20014;-80
2021/01/18 13:04:03;;;;;;;3.97;2.35;;;6.10;92.40;;;;;;6072792;23;20018;-78
2021/01/18 13:06:49;;;;;;;5.10;2.25;;;6.20;92.50;;;;;;6086805;23;20024;-78
2021/01/18 13:09:17;;;;;;;3.67;2.10;;;6.10;92.50;;;;;;6087123;23;20096;-78
2021/01/18 13:11:46;;;;;;;3.83;2.00;;;6.20;92.40;;;;;;6119075;23;20049;-80
2021/01/18 13:14:14;;;;;;;4.18;2.42;;;6.30;92.40;;;;;;6097099;23;20109;-80
2021/01/18 13:16:40;;;;;;;3.50;2.08;;;6.30;92.30;;;;;;6124100;23;20159;-80
2021/01/18 13:19:06;;;;;;;4.00;2.10;;;6.50;92.30;;;;;;6136036;23;20017;-77
2021/01/18 13:21:35;;;;;;;5.18;2.65;;;6.50;92.20;;;;;;6158046;23;20091;-78
2021/01/18 13:24:00;;;;;;;3.38;1.92;;;6.60;92.10;;;;;;6251743;22;20444;-79